Richmond's Hourly Summary for Wednesday, April 19, 2017
Hour Temp
(f)
RH
(%)
Solar Rad.
(MJ/m2)
Rainfall
(in)
Wind
(mph)
4/19/2017 12:00 AM 67 95 0 0 0.33
4/19/2017 1:00 AM 66 96 0 0 0.68
4/19/2017 2:00 AM 66 97 0 0 1.44
4/19/2017 3:00 AM 66 98 0 0 2.17
4/19/2017 4:00 AM 67 98 0 0 2.36
4/19/2017 5:00 AM 67 98 0 0 1.97
4/19/2017 6:00 AM 69 98 0 0.17 2.44
4/19/2017 7:00 AM 69 99 0 0 1.92
4/19/2017 8:00 AM 70 92 0.16 0 3.83
4/19/2017 9:00 AM 71 82 0.7 0 4.09
4/19/2017 10:00 AM 74 75 1.53 0 4.73
4/19/2017 11:00 AM 77 70 2.24 0 4.65
4/19/2017 12:00 PM 79 64 2.66 0 5.4
4/19/2017 1:00 PM 81 62 3.03 0 6.34
4/19/2017 2:00 PM 81 61 2.76 0 6.89
4/19/2017 3:00 PM 81 59 2.65 0 8.28
4/19/2017 4:00 PM 81 59 2.33 0 8.37
4/19/2017 5:00 PM 81 61 1.92 0 9.04
4/19/2017 6:00 PM 79 62 1.26 0 8.91
4/19/2017 7:00 PM 78 63 0.83 0 8.71
4/19/2017 8:00 PM 76 70 0.17 0 6.92
4/19/2017 9:00 PM 73 79 0 0 5.45
4/19/2017 10:00 PM 71 89 0 0 3.82
4/19/2017 11:00 PM 71 93 0 0 4.54
Data Summary 73 80 22.24 0.17 4.72